sensor_id;sensor_type;location;lat;lon;timestamp;P1;durP1;ratioP1;P2;durP2;ratioP2
51664;SDS011;37751;52.408;12.536;2023-02-24T00:01:56;78.53;;;20.87;;
51664;SDS011;37751;52.408;12.536;2023-02-24T00:04:38;55.83;;;17.50;;
51664;SDS011;37751;52.408;12.536;2023-02-24T00:07:07;85.33;;;22.80;;
51664;SDS011;37751;52.408;12.536;2023-02-24T00:09:37;64.70;;;18.47;;
51664;SDS011;37751;52.408;12.536;2023-02-24T00:12:09;69.00;;;18.17;;
51664;SDS011;37751;52.408;12.536;2023-02-24T00:14:43;62.40;;;16.67;;
51664;SDS011;37751;52.408;12.536;2023-02-24T00:17:15;63.33;;;18.53;;
51664;SDS011;37751;52.408;12.536;2023-02-24T00:19:44;40.57;;;12.30;;
51664;SDS011;37751;52.408;12.536;2023-02-24T00:22:14;48.73;;;11.53;;
51664;SDS011;37751;52.408;12.536;2023-02-24T00:24:45;41.97;;;11.90;;
51664;SDS011;37751;52.408;12.536;2023-02-24T00:27:13;39.27;;;11.27;;
51664;SDS011;37751;52.408;12.536;2023-02-24T00:29:45;39.53;;;9.60;;
51664;SDS011;37751;52.408;12.536;2023-02-24T00:32:15;29.17;;;9.13;;
51664;SDS011;37751;52.408;12.536;2023-02-24T00:34:46;38.17;;;9.50;;
51664;SDS011;37751;52.408;12.536;2023-02-24T00:37:17;38.97;;;8.97;;
51664;SDS011;37751;52.408;12.536;2023-02-24T00:39:53;34.60;;;8.57;;
51664;SDS011;37751;52.408;12.536;2023-02-24T00:42:24;32.30;;;9.17;;
51664;SDS011;37751;52.408;12.536;2023-02-24T00:44:53;47.90;;;10.40;;
51664;SDS011;37751;52.408;12.536;2023-02-24T00:47:23;42.37;;;10.97;;
51664;SDS011;37751;52.408;12.536;2023-02-24T00:49:55;30.13;;;9.37;;
51664;SDS011;37751;52.408;12.536;2023-02-24T00:52:26;39.77;;;10.03;;
51664;SDS011;37751;52.408;12.536;2023-02-24T00:54:54;39.43;;;10.53;;
51664;SDS011;37751;52.408;12.536;2023-02-24T00:57:30;39.10;;;11.07;;
51664;SDS011;37751;52.408;12.536;2023-02-24T01:00:03;38.83;;;11.30;;
51664;SDS011;37751;52.408;12.536;2023-02-24T01:02:43;43.97;;;10.73;;
51664;SDS011;37751;52.408;12.536;2023-02-24T01:05:14;50.83;;;10.30;;
51664;SDS011;37751;52.408;12.536;2023-02-24T01:07:43;44.00;;;10.03;;
51664;SDS011;37751;52.408;12.536;2023-02-24T01:10:10;37.13;;;9.10;;
51664;SDS011;37751;52.408;12.536;2023-02-24T01:12:38;39.63;;;10.57;;
51664;SDS011;37751;52.408;12.536;2023-02-24T01:15:17;46.90;;;9.07;;
51664;SDS011;37751;52.408;12.536;2023-02-24T01:17:48;34.13;;;7.27;;
51664;SDS011;37751;52.408;12.536;2023-02-24T01:20:18;25.93;;;7.07;;
51664;SDS011;37751;52.408;12.536;2023-02-24T01:22:48;28.00;;;7.07;;
51664;SDS011;37751;52.408;12.536;2023-02-24T01:25:20;22.23;;;4.37;;
51664;SDS011;37751;52.408;12.536;2023-02-24T01:27:54;29.77;;;5.23;;
51664;SDS011;37751;52.408;12.536;2023-02-24T01:30:26;21.57;;;4.10;;
51664;SDS011;37751;52.408;12.536;2023-02-24T01:32:56;33.40;;;4.80;;
51664;SDS011;37751;52.408;12.536;2023-02-24T01:35:31;21.47;;;4.27;;
51664;SDS011;37751;52.408;12.536;2023-02-24T01:38:01;34.27;;;4.60;;
51664;SDS011;37751;52.408;12.536;2023-02-24T01:40:29;22.30;;;3.40;;
51664;SDS011;37751;52.408;12.536;2023-02-24T01:42:56;28.27;;;4.63;;
51664;SDS011;37751;52.408;12.536;2023-02-24T01:45:25;32.27;;;4.83;;
51664;SDS011;37751;52.408;12.536;2023-02-24T01:47:57;35.13;;;6.10;;
51664;SDS011;37751;52.408;12.536;2023-02-24T01:50:33;29.53;;;5.27;;
51664;SDS011;37751;52.408;12.536;2023-02-24T01:53:03;16.77;;;2.60;;
51664;SDS011;37751;52.408;12.536;2023-02-24T01:55:45;18.03;;;3.10;;
51664;SDS011;37751;52.408;12.536;2023-02-24T01:58:23;20.30;;;3.27;;
51664;SDS011;37751;52.408;12.536;2023-02-24T02:00:54;25.47;;;3.70;;
51664;SDS011;37751;52.408;12.536;2023-02-24T02:03:26;13.07;;;2.43;;
51664;SDS011;37751;52.408;12.536;2023-02-24T02:06:10;17.67;;;3.33;;
51664;SDS011;37751;52.408;12.536;2023-02-24T02:08:44;23.90;;;3.27;;
51664;SDS011;37751;52.408;12.536;2023-02-24T02:11:15;22.37;;;2.87;;
51664;SDS011;37751;52.408;12.536;2023-02-24T02:13:47;24.63;;;3.03;;
51664;SDS011;37751;52.408;12.536;2023-02-24T02:19:13;22.17;;;3.50;;
51664;SDS011;37751;52.408;12.536;2023-02-24T02:22:03;18.53;;;3.23;;
51664;SDS011;37751;52.408;12.536;2023-02-24T02:34:26;31.37;;;3.40;;
51664;SDS011;37751;52.408;12.536;2023-02-24T02:37:25;14.67;;;1.97;;
51664;SDS011;37751;52.408;12.536;2023-02-24T02:40:25;20.43;;;3.70;;
51664;SDS011;37751;52.408;12.536;2023-02-24T02:45:54;19.07;;;2.80;;
51664;SDS011;37751;52.408;12.536;2023-02-24T02:48:39;23.77;;;2.60;;
51664;SDS011;37751;52.408;12.536;2023-02-24T02:51:17;27.10;;;3.20;;
51664;SDS011;37751;52.408;12.536;2023-02-24T02:53:56;16.40;;;2.43;;
51664;SDS011;37751;52.408;12.536;2023-02-24T02:56:29;23.00;;;3.67;;
51664;SDS011;37751;52.408;12.536;2023-02-24T02:59:02;19.47;;;2.27;;
51664;SDS011;37751;52.408;12.536;2023-02-24T03:01:35;15.03;;;2.50;;
51664;SDS011;37751;52.408;12.536;2023-02-24T03:04:06;18.57;;;2.40;;
51664;SDS011;37751;52.408;12.536;2023-02-24T03:06:43;22.13;;;3.97;;
51664;SDS011;37751;52.408;12.536;2023-02-24T03:09:21;19.77;;;2.13;;
51664;SDS011;37751;52.408;12.536;2023-02-24T03:12:05;17.17;;;2.67;;
51664;SDS011;37751;52.408;12.536;2023-02-24T03:14:41;18.10;;;2.77;;
51664;SDS011;37751;52.408;12.536;2023-02-24T03:17:21;15.17;;;2.20;;
51664;SDS011;37751;52.408;12.536;2023-02-24T03:20:00;20.23;;;2.40;;
51664;SDS011;37751;52.408;12.536;2023-02-24T03:22:49;17.87;;;2.90;;
51664;SDS011;37751;52.408;12.536;2023-02-24T03:25:41;11.87;;;2.47;;
51664;SDS011;37751;52.408;12.536;2023-02-24T03:28:38;17.13;;;2.03;;
51664;SDS011;37751;52.408;12.536;2023-02-24T03:31:17;24.43;;;3.40;;
51664;SDS011;37751;52.408;12.536;2023-02-24T03:34:05;17.73;;;1.90;;
51664;SDS011;37751;52.408;12.536;2023-02-24T03:36:37;13.37;;;2.20;;
51664;SDS011;37751;52.408;12.536;2023-02-24T03:39:05;17.07;;;2.43;;
51664;SDS011;37751;52.408;12.536;2023-02-24T03:41:45;15.90;;;2.03;;
51664;SDS011;37751;52.408;12.536;2023-02-24T03:44:25;13.37;;;2.40;;
51664;SDS011;37751;52.408;12.536;2023-02-24T03:46:55;11.70;;;1.80;;
51664;SDS011;37751;52.408;12.536;2023-02-24T03:49:23;13.07;;;2.07;;
51664;SDS011;37751;52.408;12.536;2023-02-24T04:04:11;16.53;;;2.07;;
51664;SDS011;37751;52.408;12.536;2023-02-24T04:07:16;8.03;;;1.97;;
51664;SDS011;37751;52.408;12.536;2023-02-24T04:10:16;17.83;;;1.77;;
51664;SDS011;37751;52.408;12.536;2023-02-24T04:13:11;10.00;;;1.77;;
51664;SDS011;37751;52.408;12.536;2023-02-24T04:16:12;15.73;;;2.07;;
51664;SDS011;37751;52.408;12.536;2023-02-24T04:18:56;15.00;;;1.93;;
51664;SDS011;37751;52.408;12.536;2023-02-24T04:21:35;10.37;;;1.57;;
51664;SDS011;37751;52.408;12.536;2023-02-24T04:24:05;16.00;;;2.47;;
51664;SDS011;37751;52.408;12.536;2023-02-24T04:26:43;12.07;;;1.63;;
51664;SDS011;37751;52.408;12.536;2023-02-24T04:29:15;12.37;;;1.63;;
51664;SDS011;37751;52.408;12.536;2023-02-24T04:31:50;20.27;;;2.97;;
51664;SDS011;37751;52.408;12.536;2023-02-24T04:34:29;17.73;;;1.90;;
51664;SDS011;37751;52.408;12.536;2023-02-24T04:36:59;24.27;;;2.70;;
51664;SDS011;37751;52.408;12.536;2023-02-24T04:39:29;12.53;;;1.60;;
51664;SDS011;37751;52.408;12.536;2023-02-24T04:41:59;14.10;;;2.53;;
51664;SDS011;37751;52.408;12.536;2023-02-24T04:44:27;21.03;;;2.57;;
51664;SDS011;37751;52.408;12.536;2023-02-24T04:46:55;13.80;;;2.20;;
51664;SDS011;37751;52.408;12.536;2023-02-24T04:49:24;13.53;;;2.00;;
51664;SDS011;37751;52.408;12.536;2023-02-24T04:51:54;13.43;;;2.40;;
51664;SDS011;37751;52.408;12.536;2023-02-24T04:54:23;17.87;;;2.80;;
51664;SDS011;37751;52.408;12.536;2023-02-24T04:56:51;18.10;;;2.27;;
51664;SDS011;37751;52.408;12.536;2023-02-24T04:59:19;11.33;;;1.90;;
51664;SDS011;37751;52.408;12.536;2023-02-24T05:01:48;16.93;;;2.30;;
51664;SDS011;37751;52.408;12.536;2023-02-24T05:04:24;15.87;;;2.43;;
51664;SDS011;37751;52.408;12.536;2023-02-24T05:08:23;15.70;;;2.17;;
51664;SDS011;37751;52.408;12.536;2023-02-24T05:11:46;8.03;;;2.07;;
51664;SDS011;37751;52.408;12.536;2023-02-24T05:14:18;10.07;;;2.70;;
51664;SDS011;37751;52.408;12.536;2023-02-24T05:16:53;12.10;;;2.50;;
51664;SDS011;37751;52.408;12.536;2023-02-24T05:19:26;9.77;;;1.70;;
51664;SDS011;37751;52.408;12.536;2023-02-24T05:22:16;10.53;;;2.60;;
51664;SDS011;37751;52.408;12.536;2023-02-24T05:24:44;13.90;;;1.97;;
51664;SDS011;37751;52.408;12.536;2023-02-24T05:27:29;9.17;;;1.67;;
51664;SDS011;37751;52.408;12.536;2023-02-24T05:29:57;9.03;;;2.10;;
51664;SDS011;37751;52.408;12.536;2023-02-24T05:32:43;16.83;;;1.70;;
51664;SDS011;37751;52.408;12.536;2023-02-24T05:35:16;12.67;;;2.37;;
51664;SDS011;37751;52.408;12.536;2023-02-24T05:37:48;11.87;;;2.17;;
51664;SDS011;37751;52.408;12.536;2023-02-24T05:40:18;16.60;;;2.23;;
51664;SDS011;37751;52.408;12.536;2023-02-24T05:42:47;13.23;;;1.70;;
51664;SDS011;37751;52.408;12.536;2023-02-24T05:45:16;7.00;;;1.37;;
51664;SDS011;37751;52.408;12.536;2023-02-24T05:47:44;11.93;;;1.87;;
51664;SDS011;37751;52.408;12.536;2023-02-24T05:50:13;14.87;;;1.70;;
51664;SDS011;37751;52.408;12.536;2023-02-24T05:52:46;8.53;;;1.43;;
51664;SDS011;37751;52.408;12.536;2023-02-24T05:55:14;6.77;;;1.20;;
51664;SDS011;37751;52.408;12.536;2023-02-24T05:57:42;15.40;;;1.37;;
51664;SDS011;37751;52.408;12.536;2023-02-24T06:00:10;11.43;;;1.90;;
51664;SDS011;37751;52.408;12.536;2023-02-24T06:02:42;9.67;;;1.40;;
51664;SDS011;37751;52.408;12.536;2023-02-24T06:05:16;16.10;;;1.60;;
51664;SDS011;37751;52.408;12.536;2023-02-24T06:07:56;11.07;;;2.13;;
51664;SDS011;37751;52.408;12.536;2023-02-24T06:10:31;16.20;;;1.77;;
51664;SDS011;37751;52.408;12.536;2023-02-24T06:13:05;14.27;;;1.97;;
51664;SDS011;37751;52.408;12.536;2023-02-24T06:15:34;14.17;;;2.20;;
51664;SDS011;37751;52.408;12.536;2023-02-24T06:18:03;9.87;;;2.00;;
51664;SDS011;37751;52.408;12.536;2023-02-24T06:20:39;8.63;;;2.03;;
51664;SDS011;37751;52.408;12.536;2023-02-24T06:23:07;18.77;;;2.37;;
51664;SDS011;37751;52.408;12.536;2023-02-24T06:25:35;17.40;;;2.17;;
51664;SDS011;37751;52.408;12.536;2023-02-24T06:28:32;12.17;;;2.27;;
51664;SDS011;37751;52.408;12.536;2023-02-24T06:31:02;11.00;;;2.00;;
51664;SDS011;37751;52.408;12.536;2023-02-24T06:33:34;14.17;;;2.20;;
51664;SDS011;37751;52.408;12.536;2023-02-24T06:36:03;8.70;;;2.37;;
51664;SDS011;37751;52.408;12.536;2023-02-24T06:38:32;7.70;;;1.97;;
51664;SDS011;37751;52.408;12.536;2023-02-24T06:41:03;14.53;;;1.90;;
51664;SDS011;37751;52.408;12.536;2023-02-24T06:43:37;11.17;;;1.77;;
51664;SDS011;37751;52.408;12.536;2023-02-24T06:46:11;9.73;;;2.97;;
51664;SDS011;37751;52.408;12.536;2023-02-24T06:48:43;13.83;;;2.53;;
51664;SDS011;37751;52.408;12.536;2023-02-24T06:51:17;11.63;;;1.93;;
51664;SDS011;37751;52.408;12.536;2023-02-24T06:53:45;13.17;;;1.93;;
51664;SDS011;37751;52.408;12.536;2023-02-24T06:56:14;9.90;;;1.50;;
51664;SDS011;37751;52.408;12.536;2023-02-24T06:58:46;16.57;;;2.60;;
51664;SDS011;37751;52.408;12.536;2023-02-24T07:01:21;13.33;;;2.13;;
51664;SDS011;37751;52.408;12.536;2023-02-24T07:03:56;12.13;;;1.50;;
51664;SDS011;37751;52.408;12.536;2023-02-24T07:06:37;13.70;;;2.40;;
51664;SDS011;37751;52.408;12.536;2023-02-24T07:09:11;16.93;;;2.70;;
51664;SDS011;37751;52.408;12.536;2023-02-24T07:11:42;12.27;;;2.40;;
51664;SDS011;37751;52.408;12.536;2023-02-24T07:14:19;11.93;;;2.50;;
51664;SDS011;37751;52.408;12.536;2023-02-24T07:16:53;9.47;;;1.63;;
51664;SDS011;37751;52.408;12.536;2023-02-24T07:19:22;21.70;;;2.03;;
51664;SDS011;37751;52.408;12.536;2023-02-24T07:22:00;10.97;;;1.80;;
51664;SDS011;37751;52.408;12.536;2023-02-24T07:24:36;8.70;;;1.70;;
51664;SDS011;37751;52.408;12.536;2023-02-24T07:27:06;7.50;;;1.50;;
51664;SDS011;37751;52.408;12.536;2023-02-24T07:29:37;16.63;;;2.47;;
51664;SDS011;37751;52.408;12.536;2023-02-24T07:32:06;8.80;;;2.03;;
51664;SDS011;37751;52.408;12.536;2023-02-24T07:34:36;10.80;;;1.73;;
51664;SDS011;37751;52.408;12.536;2023-02-24T07:37:07;12.33;;;2.20;;
51664;SDS011;37751;52.408;12.536;2023-02-24T07:39:37;12.83;;;2.47;;
51664;SDS011;37751;52.408;12.536;2023-02-24T07:42:06;7.27;;;2.10;;
51664;SDS011;37751;52.408;12.536;2023-02-24T07:44:43;18.93;;;2.30;;
51664;SDS011;37751;52.408;12.536;2023-02-24T07:47:15;11.30;;;2.17;;
51664;SDS011;37751;52.408;12.536;2023-02-24T07:49:43;12.43;;;2.17;;
51664;SDS011;37751;52.408;12.536;2023-02-24T07:52:11;15.30;;;2.37;;
51664;SDS011;37751;52.408;12.536;2023-02-24T07:54:39;10.90;;;1.70;;
51664;SDS011;37751;52.408;12.536;2023-02-24T07:57:07;9.57;;;1.87;;
51664;SDS011;37751;52.408;12.536;2023-02-24T07:59:40;11.10;;;2.30;;
51664;SDS011;37751;52.408;12.536;2023-02-24T08:02:11;11.67;;;1.83;;
51664;SDS011;37751;52.408;12.536;2023-02-24T08:04:39;19.53;;;2.30;;
51664;SDS011;37751;52.408;12.536;2023-02-24T08:07:10;10.97;;;2.20;;
51664;SDS011;37751;52.408;12.536;2023-02-24T08:09:40;14.03;;;1.60;;
51664;SDS011;37751;52.408;12.536;2023-02-24T08:12:16;12.33;;;2.00;;
51664;SDS011;37751;52.408;12.536;2023-02-24T08:14:51;8.97;;;1.70;;
51664;SDS011;37751;52.408;12.536;2023-02-24T08:17:24;8.13;;;2.67;;
51664;SDS011;37751;52.408;12.536;2023-02-24T08:19:53;13.63;;;1.83;;
51664;SDS011;37751;52.408;12.536;2023-02-24T08:22:41;12.20;;;2.13;;
51664;SDS011;37751;52.408;12.536;2023-02-24T08:25:13;13.47;;;1.97;;
51664;SDS011;37751;52.408;12.536;2023-02-24T08:27:46;17.60;;;1.90;;
51664;SDS011;37751;52.408;12.536;2023-02-24T08:30:41;7.93;;;2.27;;
51664;SDS011;37751;52.408;12.536;2023-02-24T08:33:19;11.97;;;2.10;;
51664;SDS011;37751;52.408;12.536;2023-02-24T08:35:50;10.33;;;1.77;;
51664;SDS011;37751;52.408;12.536;2023-02-24T08:38:28;9.37;;;2.43;;
51664;SDS011;37751;52.408;12.536;2023-02-24T08:41:15;18.10;;;2.30;;
51664;SDS011;37751;52.408;12.536;2023-02-24T08:43:47;8.20;;;2.43;;
51664;SDS011;37751;52.408;12.536;2023-02-24T08:46:19;10.33;;;2.00;;
51664;SDS011;37751;52.408;12.536;2023-02-24T08:48:54;10.43;;;1.70;;
51664;SDS011;37751;52.408;12.536;2023-02-24T08:51:28;11.07;;;2.37;;
51664;SDS011;37751;52.408;12.536;2023-02-24T08:54:02;6.70;;;1.47;;
51664;SDS011;37751;52.408;12.536;2023-02-24T08:56:37;7.23;;;1.87;;
51664;SDS011;37751;52.408;12.536;2023-02-24T08:59:11;4.47;;;1.50;;
51664;SDS011;37751;52.408;12.536;2023-02-24T09:02:05;5.77;;;2.10;;
51664;SDS011;37751;52.408;12.536;2023-02-24T09:05:02;14.27;;;1.87;;
51664;SDS011;37751;52.408;12.536;2023-02-24T09:07:40;6.73;;;1.80;;
51664;SDS011;37751;52.408;12.536;2023-02-24T09:10:13;6.17;;;1.63;;
51664;SDS011;37751;52.408;12.536;2023-02-24T09:12:45;9.33;;;1.63;;
51664;SDS011;37751;52.408;12.536;2023-02-24T09:15:15;11.87;;;1.80;;
51664;SDS011;37751;52.408;12.536;2023-02-24T09:17:43;4.57;;;1.67;;
51664;SDS011;37751;52.408;12.536;2023-02-24T09:20:16;6.23;;;1.97;;
51664;SDS011;37751;52.408;12.536;2023-02-24T09:22:57;8.13;;;1.83;;
51664;SDS011;37751;52.408;12.536;2023-02-24T09:25:46;11.97;;;2.03;;
51664;SDS011;37751;52.408;12.536;2023-02-24T09:28:17;8.27;;;1.83;;
51664;SDS011;37751;52.408;12.536;2023-02-24T09:30:59;7.93;;;1.50;;
51664;SDS011;37751;52.408;12.536;2023-02-24T09:33:37;7.83;;;1.97;;
51664;SDS011;37751;52.408;12.536;2023-02-24T09:36:13;8.70;;;1.67;;
51664;SDS011;37751;52.408;12.536;2023-02-24T09:38:55;7.80;;;1.80;;
51664;SDS011;37751;52.408;12.536;2023-02-24T09:47:22;7.40;;;1.50;;
51664;SDS011;37751;52.408;12.536;2023-02-24T09:50:26;11.00;;;1.57;;
51664;SDS011;37751;52.408;12.536;2023-02-24T09:53:31;12.30;;;2.87;;
51664;SDS011;37751;52.408;12.536;2023-02-24T10:02:01;21.73;;;3.83;;
51664;SDS011;37751;52.408;12.536;2023-02-24T10:07:55;6.13;;;1.63;;
51664;SDS011;37751;52.408;12.536;2023-02-24T10:10:26;5.70;;;1.47;;
51664;SDS011;37751;52.408;12.536;2023-02-24T10:13:15;7.00;;;1.07;;
51664;SDS011;37751;52.408;12.536;2023-02-24T10:16:03;4.03;;;1.27;;
51664;SDS011;37751;52.408;12.536;2023-02-24T10:22:05;8.33;;;1.50;;
51664;SDS011;37751;52.408;12.536;2023-02-24T10:24:58;5.50;;;0.90;;
51664;SDS011;37751;52.408;12.536;2023-02-24T10:27:54;8.03;;;1.33;;
51664;SDS011;37751;52.408;12.536;2023-02-24T10:33:22;6.30;;;1.10;;
51664;SDS011;37751;52.408;12.536;2023-02-24T10:36:05;4.40;;;1.17;;
51664;SDS011;37751;52.408;12.536;2023-02-24T10:38:36;13.53;;;1.37;;
51664;SDS011;37751;52.408;12.536;2023-02-24T10:41:12;7.77;;;1.53;;
51664;SDS011;37751;52.408;12.536;2023-02-24T10:44:03;5.57;;;1.23;;
51664;SDS011;37751;52.408;12.536;2023-02-24T10:46:33;8.67;;;1.57;;
51664;SDS011;37751;52.408;12.536;2023-02-24T10:49:09;3.40;;;1.10;;
51664;SDS011;37751;52.408;12.536;2023-02-24T10:51:47;11.80;;;1.80;;
51664;SDS011;37751;52.408;12.536;2023-02-24T10:54:22;6.27;;;1.20;;
51664;SDS011;37751;52.408;12.536;2023-02-24T10:57:03;7.00;;;1.30;;
51664;SDS011;37751;52.408;12.536;2023-02-24T10:59:44;3.17;;;0.70;;
51664;SDS011;37751;52.408;12.536;2023-02-24T11:02:47;15.20;;;1.80;;
51664;SDS011;37751;52.408;12.536;2023-02-24T11:05:39;7.83;;;1.47;;
51664;SDS011;37751;52.408;12.536;2023-02-24T11:08:34;12.93;;;1.47;;
51664;SDS011;37751;52.408;12.536;2023-02-24T11:11:06;15.20;;;1.67;;
51664;SDS011;37751;52.408;12.536;2023-02-24T11:13:47;10.70;;;1.70;;
51664;SDS011;37751;52.408;12.536;2023-02-24T11:16:51;4.17;;;1.20;;
51664;SDS011;37751;52.408;12.536;2023-02-24T11:22:42;8.53;;;1.23;;
51664;SDS011;37751;52.408;12.536;2023-02-24T11:27:55;9.43;;;1.70;;
51664;SDS011;37751;52.408;12.536;2023-02-24T11:39:20;13.53;;;2.63;;
51664;SDS011;37751;52.408;12.536;2023-02-24T11:42:15;10.87;;;2.10;;
51664;SDS011;37751;52.408;12.536;2023-02-24T11:45:03;10.77;;;2.07;;
51664;SDS011;37751;52.408;12.536;2023-02-24T11:47:43;8.80;;;1.60;;
51664;SDS011;37751;52.408;12.536;2023-02-24T11:50:34;14.10;;;1.70;;
51664;SDS011;37751;52.408;12.536;2023-02-24T11:53:40;10.70;;;1.67;;
51664;SDS011;37751;52.408;12.536;2023-02-24T11:56:23;6.60;;;1.70;;
51664;SDS011;37751;52.408;12.536;2023-02-24T12:04:39;5.07;;;1.20;;
51664;SDS011;37751;52.408;12.536;2023-02-24T12:07:23;6.23;;;1.70;;
51664;SDS011;37751;52.408;12.536;2023-02-24T12:10:04;11.07;;;3.10;;
51664;SDS011;37751;52.408;12.536;2023-02-24T12:15:29;3.93;;;1.50;;
51664;SDS011;37751;52.408;12.536;2023-02-24T12:18:11;5.67;;;1.60;;
51664;SDS011;37751;52.408;12.536;2023-02-24T12:21:15;14.67;;;1.93;;
51664;SDS011;37751;52.408;12.536;2023-02-24T12:24:11;8.47;;;1.70;;
51664;SDS011;37751;52.408;12.536;2023-02-24T12:26:48;5.30;;;1.40;;
51664;SDS011;37751;52.408;12.536;2023-02-24T12:32:59;8.10;;;1.87;;
51664;SDS011;37751;52.408;12.536;2023-02-24T12:35:50;9.83;;;1.60;;
51664;SDS011;37751;52.408;12.536;2023-02-24T12:44:54;7.33;;;1.70;;
51664;SDS011;37751;52.408;12.536;2023-02-24T12:53:40;8.43;;;1.90;;
51664;SDS011;37751;52.408;12.536;2023-02-24T12:56:20;6.70;;;1.80;;
51664;SDS011;37751;52.408;12.536;2023-02-24T12:59:07;7.87;;;1.70;;
51664;SDS011;37751;52.408;12.536;2023-02-24T13:05:13;5.87;;;2.10;;
51664;SDS011;37751;52.408;12.536;2023-02-24T13:11:15;7.57;;;2.57;;
51664;SDS011;37751;52.408;12.536;2023-02-24T13:19:38;3.73;;;1.93;;
51664;SDS011;37751;52.408;12.536;2023-02-24T13:24:58;8.73;;;2.97;;
51664;SDS011;37751;52.408;12.536;2023-02-24T13:27:42;8.90;;;2.53;;
51664;SDS011;37751;52.408;12.536;2023-02-24T13:30:33;5.47;;;2.40;;
51664;SDS011;37751;52.408;12.536;2023-02-24T13:33:21;11.90;;;3.13;;
51664;SDS011;37751;52.408;12.536;2023-02-24T13:38:46;7.93;;;2.80;;
51664;SDS011;37751;52.408;12.536;2023-02-24T13:44:00;8.20;;;2.73;;
51664;SDS011;37751;52.408;12.536;2023-02-24T14:02:14;8.10;;;2.70;;
51664;SDS011;37751;52.408;12.536;2023-02-24T14:04:49;7.90;;;2.90;;
51664;SDS011;37751;52.408;12.536;2023-02-24T14:07:23;7.13;;;2.43;;
51664;SDS011;37751;52.408;12.536;2023-02-24T14:10:01;6.30;;;2.20;;
51664;SDS011;37751;52.408;12.536;2023-02-24T14:12:43;6.23;;;3.03;;
51664;SDS011;37751;52.408;12.536;2023-02-24T14:15:24;11.43;;;3.20;;
51664;SDS011;37751;52.408;12.536;2023-02-24T14:18:00;7.57;;;2.93;;
51664;SDS011;37751;52.408;12.536;2023-02-24T14:20:31;8.53;;;2.90;;
51664;SDS011;37751;52.408;12.536;2023-02-24T14:23:13;4.33;;;2.27;;
51664;SDS011;37751;52.408;12.536;2023-02-24T14:25:51;3.43;;;2.13;;
51664;SDS011;37751;52.408;12.536;2023-02-24T14:28:34;7.33;;;3.10;;
51664;SDS011;37751;52.408;12.536;2023-02-24T14:31:14;4.43;;;2.83;;
51664;SDS011;37751;52.408;12.536;2023-02-24T14:33:43;6.93;;;3.00;;
51664;SDS011;37751;52.408;12.536;2023-02-24T14:36:13;5.27;;;3.30;;
51664;SDS011;37751;52.408;12.536;2023-02-24T14:38:45;8.73;;;3.43;;
51664;SDS011;37751;52.408;12.536;2023-02-24T14:41:23;5.30;;;3.10;;
51664;SDS011;37751;52.408;12.536;2023-02-24T14:43:53;6.30;;;3.10;;
51664;SDS011;37751;52.408;12.536;2023-02-24T14:46:28;5.33;;;2.90;;
51664;SDS011;37751;52.408;12.536;2023-02-24T14:49:00;2.20;;;1.87;;
51664;SDS011;37751;52.408;12.536;2023-02-24T14:51:32;2.57;;;2.20;;
51664;SDS011;37751;52.408;12.536;2023-02-24T14:54:05;3.87;;;2.27;;
51664;SDS011;37751;52.408;12.536;2023-02-24T14:56:39;4.13;;;2.67;;
51664;SDS011;37751;52.408;12.536;2023-02-24T14:59:13;4.57;;;2.20;;
51664;SDS011;37751;52.408;12.536;2023-02-24T15:02:09;2.47;;;1.80;;
51664;SDS011;37751;52.408;12.536;2023-02-24T15:04:59;4.10;;;1.80;;
51664;SDS011;37751;52.408;12.536;2023-02-24T15:07:28;3.23;;;2.00;;
51664;SDS011;37751;52.408;12.536;2023-02-24T15:09:59;4.77;;;2.00;;
51664;SDS011;37751;52.408;12.536;2023-02-24T15:12:36;4.73;;;2.30;;
51664;SDS011;37751;52.408;12.536;2023-02-24T15:18:01;5.10;;;2.50;;
51664;SDS011;37751;52.408;12.536;2023-02-24T15:20:37;3.53;;;2.63;;
51664;SDS011;37751;52.408;12.536;2023-02-24T15:23:28;5.03;;;3.20;;
51664;SDS011;37751;52.408;12.536;2023-02-24T15:26:00;6.57;;;2.93;;
51664;SDS011;37751;52.408;12.536;2023-02-24T15:28:34;6.70;;;2.70;;
51664;SDS011;37751;52.408;12.536;2023-02-24T15:31:25;6.07;;;3.37;;
51664;SDS011;37751;52.408;12.536;2023-02-24T15:33:59;7.43;;;3.90;;
51664;SDS011;37751;52.408;12.536;2023-02-24T15:36:32;6.43;;;3.40;;
51664;SDS011;37751;52.408;12.536;2023-02-24T15:39:05;5.93;;;3.23;;
51664;SDS011;37751;52.408;12.536;2023-02-24T15:41:40;6.23;;;3.60;;
51664;SDS011;37751;52.408;12.536;2023-02-24T15:47:21;9.07;;;4.10;;
51664;SDS011;37751;52.408;12.536;2023-02-24T15:49:54;7.53;;;4.00;;
51664;SDS011;37751;52.408;12.536;2023-02-24T15:52:26;6.20;;;4.73;;
51664;SDS011;37751;52.408;12.536;2023-02-24T15:54:58;4.77;;;4.07;;
51664;SDS011;37751;52.408;12.536;2023-02-24T15:57:29;6.60;;;4.47;;
51664;SDS011;37751;52.408;12.536;2023-02-24T16:00:03;12.10;;;5.50;;
51664;SDS011;37751;52.408;12.536;2023-02-24T16:02:41;6.30;;;4.20;;
51664;SDS011;37751;52.408;12.536;2023-02-24T16:05:11;8.83;;;6.80;;
51664;SDS011;37751;52.408;12.536;2023-02-24T16:07:41;6.53;;;5.10;;
51664;SDS011;37751;52.408;12.536;2023-02-24T16:10:15;8.77;;;5.30;;
51664;SDS011;37751;52.408;12.536;2023-02-24T16:12:53;7.47;;;5.00;;
51664;SDS011;37751;52.408;12.536;2023-02-24T16:15:29;6.83;;;5.03;;
51664;SDS011;37751;52.408;12.536;2023-02-24T16:18:00;9.60;;;4.90;;
51664;SDS011;37751;52.408;12.536;2023-02-24T16:20:34;6.63;;;5.13;;
51664;SDS011;37751;52.408;12.536;2023-02-24T16:23:08;6.30;;;5.47;;
51664;SDS011;37751;52.408;12.536;2023-02-24T16:25:39;8.33;;;6.10;;
51664;SDS011;37751;52.408;12.536;2023-02-24T16:28:14;7.07;;;5.70;;
51664;SDS011;37751;52.408;12.536;2023-02-24T16:30:45;7.70;;;5.70;;
51664;SDS011;37751;52.408;12.536;2023-02-24T16:33:27;6.57;;;5.63;;
51664;SDS011;37751;52.408;12.536;2023-02-24T16:36:34;10.50;;;6.63;;
51664;SDS011;37751;52.408;12.536;2023-02-24T16:39:40;9.17;;;7.03;;
51664;SDS011;37751;52.408;12.536;2023-02-24T16:42:32;10.90;;;6.80;;
51664;SDS011;37751;52.408;12.536;2023-02-24T16:45:20;11.37;;;6.53;;
51664;SDS011;37751;52.408;12.536;2023-02-24T16:48:38;8.73;;;6.77;;
51664;SDS011;37751;52.408;12.536;2023-02-24T16:56:21;11.23;;;7.43;;
51664;SDS011;37751;52.408;12.536;2023-02-24T17:00:07;9.70;;;7.43;;
51664;SDS011;37751;52.408;12.536;2023-02-24T17:03:45;10.47;;;8.10;;
51664;SDS011;37751;52.408;12.536;2023-02-24T17:06:32;12.60;;;8.27;;
51664;SDS011;37751;52.408;12.536;2023-02-24T17:09:21;9.63;;;7.67;;
51664;SDS011;37751;52.408;12.536;2023-02-24T17:12:08;14.87;;;9.13;;
51664;SDS011;37751;52.408;12.536;2023-02-24T17:15:06;10.93;;;9.83;;
51664;SDS011;37751;52.408;12.536;2023-02-24T17:17:42;13.90;;;9.90;;
51664;SDS011;37751;52.408;12.536;2023-02-24T17:39:11;15.03;;;10.50;;
51664;SDS011;37751;52.408;12.536;2023-02-24T17:50:26;25.30;;;10.30;;
51664;SDS011;37751;52.408;12.536;2023-02-24T17:55:18;13.87;;;9.17;;
51664;SDS011;37751;52.408;12.536;2023-02-24T17:59:59;16.37;;;11.03;;
51664;SDS011;37751;52.408;12.536;2023-02-24T18:56:28;18.00;;;14.23;;
51664;SDS011;37751;52.408;12.536;2023-02-24T19:00:42;18.47;;;12.60;;
51664;SDS011;37751;52.408;12.536;2023-02-24T19:03:15;21.07;;;14.03;;
51664;SDS011;37751;52.408;12.536;2023-02-24T19:05:58;19.50;;;15.33;;
51664;SDS011;37751;52.408;12.536;2023-02-24T19:08:47;20.33;;;14.33;;
51664;SDS011;37751;52.408;12.536;2023-02-24T19:12:08;22.23;;;15.90;;